Villa Universitaria, Puerto Rico
Current Conditions -  °F | °C
As of 4:56 PM on Wednesday 26 Nov 2014 (Local Time) from TJSJ Reporting Station
Scattered Clouds Scattered Clouds  
Wind Chill: 83°   Ceiling: Unl
Heat Index: 90°   Visibility: 10mi
Dew Point: 75°   Wind: 15mph
Humidity: 77%   Direction: 70°ENE
Pressure: 29.99"   Gusts: NA
Location:  17.9849°N, 66.1175°W
Report Text: TJSJ 262056Z 07013KT 10SM SCT024 SCT029 28/24 A2999 RMK AO2 SLP153 VCSH SE S T02830239 53002
Loading
Personal Weather Stations






























Interactive Weather Map New forecast layout! Learn more

10-Day Weather Forecast

Advertisements
Track Severe Weather on mobile